Time;durP1;ratioP1;P1;durP2;ratioP2;P2;SDS_P1;SDS_P2;PMS_P1;PMS_P2;Temp;Humidity;BMP_temperature;BMP_pressure;BME280_temperature;BME280_humidity;BME280_pressure;Samples;Min_cycle;Max_cycle;Signal;HPM_P1;HPM_P2
2023/03/14 00:00:00;;;;;;;4.55;2.60;;;;;;;;;;10371721;28;20100;-59
2023/03/14 00:05:02;;;;;;;6.53;3.00;;;;;;;;;;10372366;28;20113;-60
2023/03/14 00:10:10;;;;;;;5.25;2.70;;;;;;;;;;10372037;28;20113;-60
2023/03/14 00:15:12;;;;;;;10.50;2.78;;;;;;;;;;10372000;28;20054;-59
2023/03/14 00:20:13;;;;;;;5.15;2.40;;;;;;;;;;10371833;28;20038;-59
2023/03/14 00:25:13;;;;;;;4.75;2.30;;;;;;;;;;10371745;28;20022;-60
2023/03/14 00:30:14;;;;;;;3.85;2.42;;;;;;;;;;10371013;28;20029;-59
2023/03/14 00:35:15;;;;;;;4.57;2.35;;;;;;;;;;10371175;28;20033;-60
2023/03/14 00:40:16;;;;;;;4.10;2.72;;;;;;;;;;10370447;28;20421;-60
2023/03/14 00:45:16;;;;;;;2.70;2.20;;;;;;;;;;10370695;28;20088;-60
2023/03/14 00:50:17;;;;;;;5.55;2.63;;;;;;;;;;10370193;28;20482;-60
2023/03/14 00:55:17;;;;;;;5.28;2.83;;;;;;;;;;10370502;28;20029;-59
2023/03/14 01:00:18;;;;;;;10.70;2.83;;;;;;;;;;10370397;28;20042;-59
2023/03/14 01:05:19;;;;;;;5.45;2.40;;;;;;;;;;10364423;28;20038;-59
2023/03/14 01:10:19;;;;;;;4.32;2.85;;;;;;;;;;10369815;28;20034;-60
2023/03/14 01:15:20;;;;;;;3.53;2.40;;;;;;;;;;10369016;28;20060;-59
2023/03/14 01:20:21;;;;;;;5.00;2.53;;;;;;;;;;10369139;28;20538;-60
2023/03/14 01:25:21;;;;;;;5.82;2.47;;;;;;;;;;10369466;28;20026;-59
2023/03/14 01:30:22;;;;;;;3.72;2.50;;;;;;;;;;10367890;28;20026;-59
2023/03/14 01:35:22;;;;;;;6.63;2.60;;;;;;;;;;10368651;28;20022;-59
2023/03/14 01:40:23;;;;;;;5.03;2.28;;;;;;;;;;10368948;28;20034;-59
2023/03/14 01:46:13;;;;;;;5.45;2.08;;;;;;;;;;10368143;28;20046;-59
2023/03/14 01:51:36;;;;;;;4.57;2.50;;;;;;;;;;10367355;28;20026;-59
2023/03/14 01:56:38;;;;;;;11.95;2.95;;;;;;;;;;10367016;28;20119;-59
2023/03/14 02:01:43;;;;;;;5.60;2.65;;;;;;;;;;10367991;28;20057;-59
2023/03/14 02:07:12;;;;;;;4.30;2.75;;;;;;;;;;10368805;28;20037;-59
2023/03/14 02:12:17;;;;;;;3.10;2.28;;;;;;;;;;10362116;28;20049;-59
2023/03/14 02:17:19;;;;;;;3.67;2.40;;;;;;;;;;10367651;28;20030;-59
2023/03/14 02:22:20;;;;;;;3.47;2.33;;;;;;;;;;10366219;28;20026;-60
2023/03/14 02:27:21;;;;;;;4.78;2.30;;;;;;;;;;10374785;28;20362;-59
2023/03/14 02:32:23;;;;;;;2.90;2.00;;;;;;;;;;10374989;28;20525;-60
2023/03/14 02:37:49;;;;;;;2.65;2.35;;;;;;;;;;10373938;28;20030;-59
2023/03/14 02:42:50;;;;;;;4.55;2.40;;;;;;;;;;10373684;28;20034;-59
2023/03/14 02:47:59;;;;;;;4.78;2.00;;;;;;;;;;10374949;28;20048;-59
2023/03/14 02:53:00;;;;;;;4.95;2.40;;;;;;;;;;10374109;28;20072;-59
2023/03/14 02:58:00;;;;;;;4.55;2.53;;;;;;;;;;10374561;28;20444;-59
2023/03/14 03:03:01;;;;;;;4.95;2.20;;;;;;;;;;10374364;28;20021;-59
2023/03/14 03:08:02;;;;;;;2.97;2.20;;;;;;;;;;10373760;28;20029;-59
2023/03/14 03:13:03;;;;;;;3.67;2.38;;;;;;;;;;10374513;28;20038;-59
2023/03/14 03:18:04;;;;;;;4.05;2.47;;;;;;;;;;10372527;28;20038;-58
2023/03/14 03:23:05;;;;;;;6.28;2.08;;;;;;;;;;10373985;28;20153;-59
2023/03/14 03:28:07;;;;;;;4.88;2.75;;;;;;;;;;10373535;28;20053;-58
2023/03/14 03:33:09;;;;;;;3.30;2.15;;;;;;;;;;10373713;28;20034;-59
2023/03/14 03:38:11;;;;;;;4.80;2.63;;;;;;;;;;10372807;28;20033;-59
2023/03/14 03:43:12;;;;;;;2.50;2.13;;;;;;;;;;10372844;28;20040;-59
2023/03/14 03:48:12;;;;;;;4.15;2.25;;;;;;;;;;10372757;28;20042;-59
2023/03/14 03:53:13;;;;;;;10.82;2.70;;;;;;;;;;10370249;28;20038;-59
2023/03/14 03:58:14;;;;;;;4.25;2.40;;;;;;;;;;10372945;28;20062;-59
2023/03/14 04:03:14;;;;;;;3.28;2.05;;;;;;;;;;10372053;28;20030;-59
2023/03/14 04:08:15;;;;;;;4.15;2.50;;;;;;;;;;10372433;28;20033;-59
2023/03/14 04:13:15;;;;;;;3.03;2.45;;;;;;;;;;10372254;28;20036;-59
2023/03/14 04:18:16;;;;;;;3.25;2.55;;;;;;;;;;10371458;28;20041;-60
2023/03/14 04:23:17;;;;;;;3.63;2.40;;;;;;;;;;10371120;28;20052;-60
2023/03/14 04:28:17;;;;;;;3.47;2.40;;;;;;;;;;10371040;28;20037;-60
2023/03/14 04:33:18;;;;;;;2.65;1.83;;;;;;;;;;10370770;28;20107;-60
2023/03/14 04:38:18;;;;;;;3.53;2.45;;;;;;;;;;10371082;28;20362;-60
2023/03/14 04:43:19;;;;;;;2.97;2.20;;;;;;;;;;10370516;28;20389;-59
2023/03/14 04:48:20;;;;;;;3.10;2.22;;;;;;;;;;10369815;28;20387;-60
2023/03/14 04:53:20;;;;;;;3.28;2.10;;;;;;;;;;10370140;28;20120;-59
2023/03/14 04:58:22;;;;;;;3.00;2.28;;;;;;;;;;10370560;28;20307;-59
2023/03/14 05:03:23;;;;;;;2.42;2.08;;;;;;;;;;10369710;28;20377;-60
2023/03/14 05:08:24;;;;;;;3.20;2.20;;;;;;;;;;10369973;28;20040;-60
2023/03/14 05:13:24;;;;;;;3.38;2.13;;;;;;;;;;10369299;28;20363;-60
2023/03/14 05:18:25;;;;;;;3.75;2.72;;;;;;;;;;10369710;28;20022;-59
2023/03/14 05:23:26;;;;;;;3.78;2.60;;;;;;;;;;10368917;28;20068;-60
2023/03/14 05:28:26;;;;;;;3.78;2.28;;;;;;;;;;10369852;28;20030;-60
2023/03/14 05:33:27;;;;;;;4.10;2.30;;;;;;;;;;10369263;28;20420;-59
2023/03/14 05:38:27;;;;;;;3.10;2.17;;;;;;;;;;10368898;28;20042;-60
2023/03/14 05:43:28;;;;;;;3.70;2.20;;;;;;;;;;10368516;28;20034;-59
2023/03/14 05:48:28;;;;;;;3.78;2.40;;;;;;;;;;10368224;28;20062;-60
2023/03/14 05:53:30;;;;;;;3.70;2.20;;;;;;;;;;10367826;28;20033;-59
2023/03/14 05:58:30;;;;;;;3.08;2.15;;;;;;;;;;10359819;28;20068;-60
2023/03/14 06:03:32;;;;;;;2.80;2.53;;;;;;;;;;10367379;28;20025;-60
2023/03/14 06:08:34;;;;;;;5.53;2.42;;;;;;;;;;10367809;28;20029;-59
2023/03/14 06:13:34;;;;;;;2.83;2.20;;;;;;;;;;10367650;28;20065;-59
2023/03/14 06:18:35;;;;;;;4.45;2.30;;;;;;;;;;10367251;28;20088;-60
2023/03/14 06:23:35;;;;;;;4.53;2.45;;;;;;;;;;10367206;28;20022;-60
2023/03/14 06:28:36;;;;;;;3.63;2.25;;;;;;;;;;10365870;28;20064;-60
2023/03/14 06:33:37;;;;;;;7.95;3.13;;;;;;;;;;10366473;28;20037;-61
2023/03/14 06:38:37;;;;;;;17.27;2.55;;;;;;;;;;10367363;28;20030;-60
2023/03/14 06:43:38;;;;;;;10.68;2.92;;;;;;;;;;10367001;28;20033;-61
2023/03/14 06:48:38;;;;;;;13.02;2.95;;;;;;;;;;10365771;28;20551;-60
2023/03/14 06:53:39;;;;;;;22.60;3.85;;;;;;;;;;10366898;28;20026;-60
2023/03/14 06:58:39;;;;;;;6.53;2.75;;;;;;;;;;10367669;28;20034;-59
2023/03/14 07:03:40;;;;;;;5.22;3.35;;;;;;;;;;10364562;28;20033;-61
2023/03/14 07:08:41;;;;;;;13.13;4.18;;;;;;;;;;10364053;28;20080;-59
2023/03/14 07:13:42;;;;;;;10.50;3.78;;;;;;;;;;10371819;28;20056;-59
2023/03/14 07:18:42;;;;;;;19.25;4.20;;;;;;;;;;10373517;28;20036;-59
2023/03/14 07:23:43;;;;;;;7.13;3.75;;;;;;;;;;10373747;28;20030;-59
2023/03/14 07:28:44;;;;;;;9.85;3.72;;;;;;;;;;10373480;28;20033;-59
2023/03/14 07:33:44;;;;;;;14.77;3.72;;;;;;;;;;10373703;28;20037;-58
2023/03/14 07:38:45;;;;;;;10.98;3.20;;;;;;;;;;10373054;28;20061;-59
2023/03/14 07:43:46;;;;;;;4.97;3.00;;;;;;;;;;10373162;28;20026;-58
2023/03/14 07:48:46;;;;;;;10.73;3.40;;;;;;;;;;10372721;28;20029;-59
2023/03/14 07:53:47;;;;;;;7.40;2.97;;;;;;;;;;10372335;28;20061;-59
2023/03/14 07:58:47;;;;;;;5.85;3.08;;;;;;;;;;10372440;28;20034;-60
2023/03/14 08:03:48;;;;;;;5.78;3.20;;;;;;;;;;10372126;28;20026;-59
2023/03/14 08:08:49;;;;;;;9.40;3.13;;;;;;;;;;10372333;28;20037;-59
2023/03/14 08:13:50;;;;;;;4.22;3.00;;;;;;;;;;10372004;28;20022;-59
2023/03/14 08:18:51;;;;;;;6.93;3.17;;;;;;;;;;10371949;28;20061;-60
2023/03/14 08:23:51;;;;;;;4.15;2.70;;;;;;;;;;10370900;28;20054;-59
2023/03/14 08:28:52;;;;;;;4.78;3.10;;;;;;;;;;10371612;28;20037;-59
2023/03/14 08:33:53;;;;;;;10.35;3.50;;;;;;;;;;10371100;28;20025;-58
2023/03/14 08:38:54;;;;;;;7.20;2.88;;;;;;;;;;10370382;28;20039;-59
2023/03/14 08:43:54;;;;;;;8.82;3.47;;;;;;;;;;10369932;28;20026;-57
2023/03/14 08:48:55;;;;;;;8.32;3.03;;;;;;;;;;10370360;28;20399;-58
2023/03/14 08:53:55;;;;;;;10.15;3.40;;;;;;;;;;10369925;28;20466;-59
2023/03/14 08:58:56;;;;;;;9.25;3.28;;;;;;;;;;10370154;28;20044;-58
2023/03/14 09:03:57;;;;;;;3.72;2.80;;;;;;;;;;10369889;28;20036;-58
2023/03/14 09:08:57;;;;;;;6.63;2.80;;;;;;;;;;10369971;28;20466;-59
2023/03/14 09:13:58;;;;;;;4.75;3.20;;;;;;;;;;10369441;28;20540;-58
2023/03/14 09:18:59;;;;;;;4.72;2.65;;;;;;;;;;10370136;28;20462;-59
2023/03/14 09:24:00;;;;;;;6.38;3.00;;;;;;;;;;10368798;28;20030;-58
2023/03/14 09:29:00;;;;;;;5.65;2.70;;;;;;;;;;10368725;28;20052;-59
2023/03/14 09:34:01;;;;;;;5.63;3.08;;;;;;;;;;10368363;28;20041;-60
2023/03/14 09:39:02;;;;;;;9.48;3.15;;;;;;;;;;10368101;28;20037;-59
2023/03/14 09:44:19;;;;;;;3.10;2.72;;;;;;;;;;10368517;28;20046;-58
2023/03/14 09:49:39;;;;;;;9.00;2.95;;;;;;;;;;10367072;28;20049;-59
2023/03/14 09:54:52;;;;;;;6.68;2.70;;;;;;;;;;10366771;28;20504;-58
2023/03/14 09:59:58;;;;;;;5.05;2.92;;;;;;;;;;10368305;28;20057;-59
2023/03/14 10:05:00;;;;;;;4.95;2.83;;;;;;;;;;10367090;28;20034;-59
2023/03/14 10:10:16;;;;;;;8.32;3.20;;;;;;;;;;10368147;28;20057;-58
2023/03/14 10:15:31;;;;;;;6.47;2.50;;;;;;;;;;10366926;28;20112;-60
2023/03/14 10:20:38;;;;;;;3.90;2.92;;;;;;;;;;10366287;28;20120;-61
2023/03/14 10:26:00;;;;;;;3.92;2.58;;;;;;;;;;10367838;28;20026;-59
2023/03/14 10:31:01;;;;;;;3.75;2.70;;;;;;;;;;10366918;28;20024;-59
2023/03/14 10:36:03;;;;;;;7.13;2.80;;;;;;;;;;10366105;28;20026;-59
2023/03/14 10:41:26;;;;;;;2.80;2.50;;;;;;;;;;10367463;28;20030;-58
2023/03/14 10:46:32;;;;;;;6.68;2.88;;;;;;;;;;10370587;28;20104;-59
2023/03/14 10:51:32;;;;;;;3.90;2.58;;;;;;;;;;10374968;28;20457;-59
2023/03/14 10:56:36;;;;;;;3.45;2.50;;;;;;;;;;10374619;28;20033;-59
2023/03/14 11:01:53;;;;;;;5.57;2.67;;;;;;;;;;10374846;28;20482;-59
2023/03/14 11:07:38;;;;;;;9.10;3.05;;;;;;;;;;10373923;28;20093;-58
2023/03/14 11:13:06;;;;;;;4.30;2.53;;;;;;;;;;10373245;28;20026;-59
2023/03/14 11:18:22;;;;;;;4.85;2.67;;;;;;;;;;10373644;28;20117;-58
2023/03/14 11:23:26;;;;;;;4.10;2.83;;;;;;;;;;10373284;28;20433;-59
2023/03/14 11:28:38;;;;;;;11.05;3.10;;;;;;;;;;10372504;28;20670;-59
2023/03/14 11:34:00;;;;;;;8.48;3.00;;;;;;;;;;10373294;28;20112;-59
2023/03/14 11:39:00;;;;;;;4.25;3.00;;;;;;;;;;10373555;28;20045;-60
2023/03/14 11:44:09;;;;;;;4.05;2.42;;;;;;;;;;10372814;28;20053;-59
2023/03/14 11:49:38;;;;;;;3.90;2.58;;;;;;;;;;10371443;28;20072;-59
2023/03/14 11:54:51;;;;;;;;;;;;;;;;;;10372226;28;20030;-59
2023/03/14 12:00:12;;;;;;;5.82;3.10;;;;;;;;;;10369015;28;19920;-59
2023/03/14 12:05:28;;;;;;;6.93;2.78;;;;;;;;;;10371339;28;20030;-59
2023/03/14 12:10:28;;;;;;;4.32;2.50;;;;;;;;;;10371639;28;20033;-59
2023/03/14 12:15:29;;;;;;;5.53;2.80;;;;;;;;;;10371669;28;20422;-60
2023/03/14 12:20:30;;;;;;;4.03;2.78;;;;;;;;;;10371227;28;20212;-60
2023/03/14 12:25:33;;;;;;;11.65;3.28;;;;;;;;;;10369974;28;20034;-60
2023/03/14 12:30:37;;;;;;;10.48;3.00;;;;;;;;;;10368945;28;20084;-60
2023/03/14 12:35:56;;;;;;;5.30;2.70;;;;;;;;;;10370438;28;20389;-59
2023/03/14 12:41:24;;;;;;;6.13;2.78;;;;;;;;;;10370971;28;20288;-60
2023/03/14 12:46:27;;;;;;;5.30;2.35;;;;;;;;;;10370506;28;20046;-59
2023/03/14 12:51:40;;;;;;;7.15;2.75;;;;;;;;;;10370673;28;20036;-60
2023/03/14 12:57:25;;;;;;;6.85;2.78;;;;;;;;;;10369727;28;20048;-60
2023/03/14 13:02:36;;;;;;;6.50;3.33;;;;;;;;;;10369150;28;20489;-59
2023/03/14 13:07:45;;;;;;;5.30;2.60;;;;;;;;;;10368116;28;20025;-59
2023/03/14 13:13:10;;;;;;;6.35;3.15;;;;;;;;;;10368348;28;20105;-60
2023/03/14 13:18:16;;;;;;;8.35;2.88;;;;;;;;;;10369456;28;20022;-60
2023/03/14 13:23:29;;;;;;;6.85;2.63;;;;;;;;;;10367708;28;20121;-60
2023/03/14 13:28:30;;;;;;;2.88;2.17;;;;;;;;;;10366670;28;20100;-59
2023/03/14 13:33:32;;;;;;;4.72;2.38;;;;;;;;;;10367655;28;20026;-59
2023/03/14 13:38:36;;;;;;;5.18;2.47;;;;;;;;;;10366624;28;20517;-60
2023/03/14 13:43:40;;;;;;;3.50;2.50;;;;;;;;;;10366775;28;20053;-59
2023/03/14 13:48:58;;;;;;;2.47;2.10;;;;;;;;;;10366584;28;20050;-59
2023/03/14 13:53:59;;;;;;;7.57;2.90;;;;;;;;;;10367925;28;20485;-60
2023/03/14 13:59:00;;;;;;;3.03;2.47;;;;;;;;;;10366173;28;20129;-60
2023/03/14 14:04:14;;;;;;;9.77;2.38;;;;;;;;;;10367497;28;20029;-62
2023/03/14 14:09:23;;;;;;;4.03;2.78;;;;;;;;;;10367087;28;20025;-61
2023/03/14 14:14:33;;;;;;;7.88;2.85;;;;;;;;;;10362727;28;20426;-60
2023/03/14 14:19:35;;;;;;;6.15;2.20;;;;;;;;;;10369041;28;20064;-60
2023/03/14 14:24:37;;;;;;;3.42;2.17;;;;;;;;;;10374414;28;20157;-60
2023/03/14 14:29:38;;;;;;;3.58;2.55;;;;;;;;;;10374687;28;20034;-61
2023/03/14 14:34:51;;;;;;;5.45;2.38;;;;;;;;;;10375130;28;20034;-61
2023/03/14 14:39:56;;;;;;;5.53;2.20;;;;;;;;;;10374204;28;20061;-59
2023/03/14 14:45:06;;;;;;;4.55;2.30;;;;;;;;;;10374777;28;20121;-57
2023/03/14 14:50:31;;;;;;;2.45;2.20;;;;;;;;;;10390124;28;20030;-58
2023/03/14 14:55:41;;;;;;;4.28;2.50;;;;;;;;;;10373425;28;20508;-59
2023/03/14 15:00:53;;;;;;;6.25;2.35;;;;;;;;;;10373719;28;20058;-61
2023/03/14 15:05:55;;;;;;;4.60;2.70;;;;;;;;;;10374564;28;20022;-61
2023/03/14 15:10:57;;;;;;;4.10;2.42;;;;;;;;;;10373898;28;20034;-59
2023/03/14 15:15:58;;;;;;;4.60;2.65;;;;;;;;;;10373887;28;20034;-60
2023/03/14 15:20:58;;;;;;;8.45;3.10;;;;;;;;;;10373372;28;20034;-60
2023/03/14 15:25:59;;;;;;;4.25;2.50;;;;;;;;;;10374114;28;20330;-59
2023/03/14 15:30:59;;;;;;;3.95;2.28;;;;;;;;;;10372853;28;20112;-60
2023/03/14 15:36:00;;;;;;;3.28;2.00;;;;;;;;;;10372548;28;20389;-60
2023/03/14 15:41:01;;;;;;;9.07;2.58;;;;;;;;;;10373178;28;20026;-60
2023/03/14 15:46:01;;;;;;;4.50;2.15;;;;;;;;;;10372370;28;20050;-59
2023/03/14 15:51:02;;;;;;;4.88;2.40;;;;;;;;;;10372550;28;20088;-61
2023/03/14 15:56:11;;;;;;;5.15;2.10;;;;;;;;;;10371917;28;20030;-60
2023/03/14 16:01:12;;;;;;;7.60;2.28;;;;;;;;;;10371518;28;20041;-60
2023/03/14 16:06:14;;;;;;;6.55;2.30;;;;;;;;;;10371686;28;20101;-61
2023/03/14 16:11:17;;;;;;;4.32;2.05;;;;;;;;;;10371727;28;20096;-60
2023/03/14 16:16:18;;;;;;;7.93;2.10;;;;;;;;;;10371411;28;20105;-61
2023/03/14 16:21:20;;;;;;;5.25;2.40;;;;;;;;;;10370298;28;20026;-61
2023/03/14 16:26:20;;;;;;;4.85;1.90;;;;;;;;;;10370416;28;20465;-61
2023/03/14 16:31:22;;;;;;;3.20;1.98;;;;;;;;;;10370941;28;20034;-61
2023/03/14 16:36:23;;;;;;;3.03;2.00;;;;;;;;;;10370689;28;20421;-60
2023/03/14 16:41:24;;;;;;;4.20;2.20;;;;;;;;;;10369777;28;20056;-60
2023/03/14 16:46:27;;;;;;;5.38;2.10;;;;;;;;;;10369735;28;20053;-59
2023/03/14 16:51:27;;;;;;;5.05;2.50;;;;;;;;;;10370402;28;20037;-61
2023/03/14 16:56:28;;;;;;;3.85;2.08;;;;;;;;;;10370339;28;20381;-60
2023/03/14 17:01:29;;;;;;;5.38;2.33;;;;;;;;;;10369779;28;20379;-61
2023/03/14 17:06:29;;;;;;;2.83;1.92;;;;;;;;;;10369106;28;20354;-59
2023/03/14 17:11:32;;;;;;;6.07;1.75;;;;;;;;;;10368927;28;20076;-61
2023/03/14 17:16:32;;;;;;;3.13;1.90;;;;;;;;;;10369760;28;20394;-60
2023/03/14 17:21:33;;;;;;;3.72;2.30;;;;;;;;;;10367480;28;20029;-60
2023/03/14 17:26:34;;;;;;;6.78;2.55;;;;;;;;;;10368679;28;20029;-60
2023/03/14 17:31:34;;;;;;;4.63;2.22;;;;;;;;;;10367117;28;20397;-61
2023/03/14 17:36:35;;;;;;;6.72;2.30;;;;;;;;;;10368583;28;20018;-60
2023/03/14 17:41:35;;;;;;;7.80;2.20;;;;;;;;;;10367554;28;20374;-59
2023/03/14 17:46:36;;;;;;;10.15;2.67;;;;;;;;;;10367117;28;20045;-60
2023/03/14 17:51:36;;;;;;;10.57;2.40;;;;;;;;;;10368171;28;20032;-61
2023/03/14 17:56:37;;;;;;;15.00;2.58;;;;;;;;;;10367769;28;20030;-61
2023/03/14 18:01:39;;;;;;;9.07;2.53;;;;;;;;;;10367885;28;20495;-61
2023/03/14 18:06:43;;;;;;;6.78;2.30;;;;;;;;;;10366480;28;20037;-60
2023/03/14 18:11:44;;;;;;;8.05;2.55;;;;;;;;;;10367544;28;20018;-60
2023/03/14 18:16:47;;;;;;;5.97;2.15;;;;;;;;;;10367845;28;20026;-60
2023/03/14 18:21:50;;;;;;;11.63;2.35;;;;;;;;;;10366900;28;20033;-60
2023/03/14 18:26:51;;;;;;;5.25;1.98;;;;;;;;;;10367850;28;20054;-60
2023/03/14 18:31:51;;;;;;;9.48;2.63;;;;;;;;;;10365987;28;20378;-60
2023/03/14 18:36:52;;;;;;;9.63;2.30;;;;;;;;;;10366013;28;20397;-60
2023/03/14 18:41:53;;;;;;;5.95;2.25;;;;;;;;;;10365448;28;20034;-60
2023/03/14 18:46:53;;;;;;;10.05;2.42;;;;;;;;;;10362930;28;20042;-59
2023/03/14 18:51:54;;;;;;;10.05;2.60;;;;;;;;;;10366350;28;20036;-59
2023/03/14 18:56:55;;;;;;;13.25;2.70;;;;;;;;;;10366238;28;20064;-59
2023/03/14 19:01:55;;;;;;;7.95;2.50;;;;;;;;;;10366578;28;20040;-60
2023/03/14 19:06:56;;;;;;;9.93;2.50;;;;;;;;;;10368776;28;20374;-59
2023/03/14 19:11:57;;;;;;;6.95;2.78;;;;;;;;;;10372723;28;20036;-59
2023/03/14 19:16:58;;;;;;;9.25;3.55;;;;;;;;;;10373962;28;20037;-59
2023/03/14 19:21:58;;;;;;;9.77;3.50;;;;;;;;;;10373674;28;20037;-60
2023/03/14 19:26:59;;;;;;;6.32;3.30;;;;;;;;;;10373264;28;20034;-59
2023/03/14 19:32:00;;;;;;;6.18;3.17;;;;;;;;;;10373637;28;20034;-59
2023/03/14 19:37:00;;;;;;;6.57;2.65;;;;;;;;;;10372994;28;20034;-59
2023/03/14 19:42:01;;;;;;;6.53;2.22;;;;;;;;;;10373192;28;20088;-59
2023/03/14 19:47:04;;;;;;;6.63;2.75;;;;;;;;;;10372481;28;20078;-59
2023/03/14 19:52:04;;;;;;;9.65;2.85;;;;;;;;;;10371225;28;20428;-59
2023/03/14 19:57:05;;;;;;;6.72;2.78;;;;;;;;;;10370941;28;20038;-59
2023/03/14 20:02:05;;;;;;;7.50;2.67;;;;;;;;;;10370871;28;20101;-59
2023/03/14 20:07:06;;;;;;;5.70;2.08;;;;;;;;;;10371114;28;20116;-59
2023/03/14 20:12:08;;;;;;;7.22;2.88;;;;;;;;;;10372315;28;20037;-59
2023/03/14 20:17:09;;;;;;;6.13;2.55;;;;;;;;;;10371217;28;20029;-59
2023/03/14 20:22:09;;;;;;;8.80;2.55;;;;;;;;;;10371947;28;20079;-59
2023/03/14 20:27:10;;;;;;;5.80;2.50;;;;;;;;;;10371689;28;20025;-59
2023/03/14 20:32:10;;;;;;;11.05;2.83;;;;;;;;;;10371758;28;20626;-59
2023/03/14 20:37:12;;;;;;;6.18;2.50;;;;;;;;;;10370839;28;20037;-59
2023/03/14 20:42:13;;;;;;;19.05;3.45;;;;;;;;;;10369259;28;20067;-59
2023/03/14 20:47:13;;;;;;;10.25;2.70;;;;;;;;;;10369940;28;20076;-59
2023/03/14 20:52:15;;;;;;;12.80;3.00;;;;;;;;;;10370495;28;20132;-59
2023/03/14 20:57:16;;;;;;;14.00;3.25;;;;;;;;;;10370430;28;20342;-59
2023/03/14 21:02:16;;;;;;;8.25;3.33;;;;;;;;;;10370221;28;20038;-59
2023/03/14 21:07:19;;;;;;;15.02;3.35;;;;;;;;;;10370335;28;20402;-59
2023/03/14 21:12:19;;;;;;;7.60;3.13;;;;;;;;;;10368600;28;20453;-59
2023/03/14 21:17:20;;;;;;;12.10;3.17;;;;;;;;;;10369346;28;20036;-59
2023/03/14 21:22:21;;;;;;;13.07;3.30;;;;;;;;;;10368996;28;20037;-59
2023/03/14 21:27:22;;;;;;;14.05;3.00;;;;;;;;;;10368861;28;20026;-59
2023/03/14 21:32:22;;;;;;;13.63;3.40;;;;;;;;;;10368331;28;20033;-59
2023/03/14 21:37:26;;;;;;;7.97;2.60;;;;;;;;;;10368378;28;20081;-59
2023/03/14 21:42:27;;;;;;;15.73;2.92;;;;;;;;;;10365391;28;20474;-59
2023/03/14 21:47:27;;;;;;;9.15;2.45;;;;;;;;;;10367907;28;20049;-60
2023/03/14 21:52:28;;;;;;;10.55;2.75;;;;;;;;;;10367333;28;20049;-59
2023/03/14 21:57:28;;;;;;;7.47;2.92;;;;;;;;;;10367530;28;20037;-60
2023/03/14 22:02:29;;;;;;;6.97;2.72;;;;;;;;;;10367624;28;20030;-59
2023/03/14 22:07:30;;;;;;;16.02;3.53;;;;;;;;;;10367742;28;20037;-58
2023/03/14 22:12:30;;;;;;;9.77;2.90;;;;;;;;;;10367279;28;20037;-59
2023/03/14 22:17:31;;;;;;;7.95;2.95;;;;;;;;;;10365863;28;20026;-59
2023/03/14 22:22:31;;;;;;;7.70;3.15;;;;;;;;;;10364995;28;20026;-60
2023/03/14 22:27:32;;;;;;;8.18;3.03;;;;;;;;;;10366677;28;20030;-59
2023/03/14 22:32:33;;;;;;;7.47;2.80;;;;;;;;;;10367162;28;20033;-59
2023/03/14 22:37:33;;;;;;;8.85;2.90;;;;;;;;;;10363787;28;20029;-59
2023/03/14 22:42:34;;;;;;;9.25;2.78;;;;;;;;;;10370615;28;20030;-60
2023/03/14 22:47:34;;;;;;;12.90;2.83;;;;;;;;;;10374417;28;20042;-61
2023/03/14 22:52:35;;;;;;;8.18;2.90;;;;;;;;;;10374269;28;20037;-61
2023/03/14 22:57:36;;;;;;;7.53;2.50;;;;;;;;;;10374087;28;20033;-60
2023/03/14 23:02:38;;;;;;;7.55;3.13;;;;;;;;;;10374342;28;20173;-61
2023/03/14 23:07:39;;;;;;;7.22;2.63;;;;;;;;;;10374191;28;20037;-60
2023/03/14 23:12:39;;;;;;;4.13;2.40;;;;;;;;;;10373962;28;20030;-60
2023/03/14 23:17:42;;;;;;;5.35;2.63;;;;;;;;;;10372678;28;20049;-60
2023/03/14 23:22:42;;;;;;;6.50;2.58;;;;;;;;;;10373086;28;20034;-60
2023/03/14 23:27:45;;;;;;;6.07;2.30;;;;;;;;;;10373021;28;20030;-60
2023/03/14 23:32:46;;;;;;;5.15;2.20;;;;;;;;;;10373529;28;20041;-60
2023/03/14 23:37:46;;;;;;;5.30;2.40;;;;;;;;;;10372723;28;20508;-60
2023/03/14 23:42:48;;;;;;;6.90;2.55;;;;;;;;;;10371430;28;20036;-60
2023/03/14 23:47:49;;;;;;;9.20;2.80;;;;;;;;;;10372379;28;20064;-61
2023/03/14 23:52:49;;;;;;;7.70;2.65;;;;;;;;;;10372423;28;20037;-60
2023/03/14 23:57:51;;;;;;;5.68;2.33;;;;;;;;;;10372748;28;20022;-60
